createdAt,value
2023-03-17T00:02:21.661Z,1.88
2023-03-17T00:06:29.401Z,2.38
2023-03-17T00:10:31.937Z,2.10
2023-03-17T00:14:34.115Z,1.60
2023-03-17T00:18:37.217Z,1.92
2023-03-17T00:22:39.857Z,2.08
2023-03-17T00:26:42.596Z,1.92
2023-03-17T00:30:44.818Z,2.03
2023-03-17T00:34:47.663Z,1.70
2023-03-17T00:38:52.662Z,2.42
2023-03-17T00:42:55.181Z,2.20
2023-03-17T00:46:57.901Z,2.00
2023-03-17T00:51:01.446Z,1.90
2023-03-17T00:55:04.523Z,2.00
2023-03-17T00:59:19.432Z,2.00
2023-03-17T01:03:22.411Z,1.60
2023-03-17T01:07:24.517Z,2.00
2023-03-17T01:11:26.359Z,2.10
2023-03-17T01:15:31.646Z,2.10
2023-03-17T01:19:33.449Z,2.05
2023-03-17T01:23:35.815Z,2.10
2023-03-17T01:27:38.664Z,2.10
2023-03-17T01:31:41.258Z,2.25
2023-03-17T01:35:46.281Z,2.22
2023-03-17T01:39:48.127Z,2.40
2023-03-17T01:43:49.982Z,2.58
2023-03-17T01:47:52.349Z,2.58
2023-03-17T01:52:09.847Z,2.13
2023-03-17T01:56:12.435Z,2.10
2023-03-17T02:00:20.645Z,2.13
2023-03-17T02:04:23.733Z,2.40
2023-03-17T02:08:26.368Z,2.38
2023-03-17T02:12:29.428Z,2.10
2023-03-17T02:16:32.754Z,2.28
2023-03-17T02:20:34.587Z,1.98
2023-03-17T02:24:43.383Z,2.63
2023-03-17T02:28:46.161Z,2.28
2023-03-17T02:32:47.987Z,2.30
2023-03-17T02:36:49.922Z,2.10
2023-03-17T02:40:58.161Z,2.08
2023-03-17T02:45:00.382Z,2.00
2023-03-17T02:49:02.471Z,2.38
2023-03-17T02:53:04.304Z,2.50
2023-03-17T02:57:08.400Z,2.22
2023-03-17T03:01:10.722Z,2.58
2023-03-17T03:05:12.716Z,2.50
2023-03-17T03:09:14.981Z,1.92
2023-03-17T03:13:17.410Z,2.40
2023-03-17T03:17:20.487Z,2.10
2023-03-17T03:21:22.428Z,1.90
2023-03-17T03:25:24.261Z,2.10
2023-03-17T03:29:26.183Z,1.58
2023-03-17T03:33:28.491Z,1.98
2023-03-17T03:37:30.497Z,2.08
2023-03-17T03:41:32.298Z,1.95
2023-03-17T03:45:34.458Z,1.90
2023-03-17T03:49:36.252Z,2.40
2023-03-17T03:53:38.021Z,2.33
2023-03-17T03:57:39.817Z,2.42
2023-03-17T04:01:41.648Z,2.80
2023-03-17T04:05:43.450Z,2.83
2023-03-17T04:09:45.835Z,2.70
2023-03-17T04:13:47.722Z,2.30
2023-03-17T04:17:49.649Z,2.33
2023-03-17T04:21:53.728Z,2.38
2023-03-17T04:25:56.950Z,2.70
2023-03-17T04:29:58.991Z,2.95
2023-03-17T04:34:01.335Z,2.53
2023-03-17T04:38:04.028Z,3.00
2023-03-17T04:42:06.650Z,2.40
2023-03-17T04:46:09.337Z,2.70
2023-03-17T04:50:11.815Z,2.60
2023-03-17T04:54:13.965Z,2.05
2023-03-17T04:58:29.962Z,2.00
2023-03-17T05:02:33.513Z,2.58
2023-03-17T05:06:37.373Z,2.63
2023-03-17T05:10:39.320Z,2.63
2023-03-17T05:14:41.699Z,2.28
2023-03-17T05:18:44.109Z,2.60
2023-03-17T05:22:46.760Z,3.35
2023-03-17T05:26:49.115Z,3.10
2023-03-17T05:30:52.191Z,3.65
2023-03-17T05:34:54.451Z,5.53
2023-03-17T05:38:56.875Z,5.40
2023-03-17T05:42:59.086Z,3.17
2023-03-17T05:47:01.249Z,2.83
2023-03-17T05:51:03.898Z,2.55
2023-03-17T05:55:07.362Z,2.75
2023-03-17T05:59:10.708Z,2.88
2023-03-17T06:03:13.082Z,2.63
2023-03-17T06:07:15.870Z,2.08
2023-03-17T06:11:20.187Z,2.30
2023-03-17T06:15:22.394Z,2.53
2023-03-17T06:19:24.819Z,2.75
2023-03-17T06:23:27.186Z,2.70
2023-03-17T06:27:29.099Z,3.00
2023-03-17T06:31:31.416Z,2.97
2023-03-17T06:35:34.442Z,2.40
2023-03-17T06:39:37.589Z,3.42
2023-03-17T06:43:39.701Z,3.10
2023-03-17T06:47:41.677Z,2.85
2023-03-17T06:51:43.464Z,2.80
2023-03-17T06:55:46.513Z,3.78
2023-03-17T06:59:48.442Z,3.03
2023-03-17T07:03:50.836Z,2.90
2023-03-17T07:07:52.679Z,2.75
2023-03-17T07:11:54.490Z,3.05
2023-03-17T07:15:58.537Z,2.30
2023-03-17T07:20:02.174Z,3.10
2023-03-17T07:24:04.520Z,2.40
2023-03-17T07:28:06.287Z,3.10
2023-03-17T07:32:09.656Z,2.50
2023-03-17T07:36:11.528Z,2.83
2023-03-17T07:40:13.590Z,3.15
2023-03-17T07:44:15.546Z,2.70
2023-03-17T07:48:17.775Z,2.90
2023-03-17T07:52:19.583Z,2.72
2023-03-17T07:56:21.899Z,2.88
2023-03-17T08:00:24.254Z,2.50
2023-03-17T08:04:27.544Z,2.60
2023-03-17T08:08:29.791Z,2.85
2023-03-17T08:12:31.617Z,3.00
2023-03-17T08:16:34.044Z,2.72
2023-03-17T08:20:36.669Z,2.55
2023-03-17T08:24:41.188Z,2.42
2023-03-17T08:28:43.121Z,2.05
2023-03-17T08:32:45.007Z,2.20
2023-03-17T08:36:46.825Z,2.10
2023-03-17T08:40:50.637Z,2.10
2023-03-17T08:44:52.477Z,2.00
2023-03-17T08:48:56.748Z,2.30
2023-03-17T08:52:58.514Z,2.20
2023-03-17T08:57:01.835Z,2.42
2023-03-17T09:01:04.585Z,2.40
2023-03-17T09:05:07.684Z,2.40
2023-03-17T09:09:10.248Z,2.65
2023-03-17T09:13:12.080Z,2.50
2023-03-17T09:17:14.457Z,2.20
2023-03-17T09:21:16.404Z,1.98
2023-03-17T09:25:18.977Z,2.20
2023-03-17T09:29:20.713Z,2.10
2023-03-17T09:33:22.519Z,1.83
2023-03-17T09:37:24.534Z,2.00
2023-03-17T09:41:48.657Z,1.90
2023-03-17T09:45:51.507Z,2.20
2023-03-17T09:49:58.826Z,2.20
2023-03-17T09:54:07.853Z,2.00
2023-03-17T09:58:11.805Z,1.80
2023-03-17T10:02:27.174Z,2.00
2023-03-17T10:06:28.944Z,2.00
2023-03-17T10:10:48.195Z,1.70
2023-03-17T10:15:01.042Z,1.80
2023-03-17T10:19:27.182Z,1.90
2023-03-17T10:23:33.113Z,1.88
2023-03-17T10:27:37.361Z,1.60
2023-03-17T10:31:39.388Z,1.70
2023-03-17T10:35:42.179Z,1.70
2023-03-17T10:39:56.178Z,1.80
2023-03-17T10:43:58.377Z,1.60
2023-03-17T10:48:04.284Z,1.60
2023-03-17T10:52:08.089Z,1.35
2023-03-17T10:56:26.015Z,1.55
2023-03-17T11:00:33.722Z,1.50
2023-03-17T11:04:39.752Z,1.75
2023-03-17T11:08:45.739Z,1.90
2023-03-17T11:12:54.415Z,1.40
2023-03-17T11:17:01.683Z,1.55
2023-03-17T11:21:19.713Z,1.88
2023-03-17T11:25:23.502Z,2.00
2023-03-17T11:29:43.578Z,1.90
2023-03-17T11:33:51.214Z,2.00
2023-03-17T11:38:11.046Z,1.67
2023-03-17T11:42:18.616Z,1.67
2023-03-17T11:46:38.934Z,1.63
2023-03-17T11:50:58.731Z,1.70
2023-03-17T11:55:18.180Z,1.73
2023-03-17T11:59:29.988Z,1.58
2023-03-17T12:03:38.818Z,1.58
2023-03-17T12:07:47.988Z,1.85
2023-03-17T12:11:50.880Z,1.90
2023-03-17T12:16:11.010Z,1.80
2023-03-17T12:20:24.744Z,2.10
2023-03-17T12:24:31.519Z,2.08
2023-03-17T12:32:51.907Z,2.20
2023-03-17T12:36:53.988Z,2.22
2023-03-17T12:41:21.926Z,2.08
2023-03-17T12:45:29.688Z,2.40
2023-03-17T12:49:34.733Z,2.35
2023-03-17T12:53:39.997Z,2.80
2023-03-17T12:57:47.953Z,2.13
2023-03-17T13:02:13.105Z,2.58
2023-03-17T13:06:20.853Z,2.22
2023-03-17T13:10:43.517Z,2.58
2023-03-17T13:14:47.357Z,2.67
2023-03-17T13:18:50.537Z,2.60
2023-03-17T13:23:10.349Z,2.35
2023-03-17T13:27:33.926Z,2.25
2023-03-17T13:31:37.593Z,2.60
2023-03-17T13:35:42.395Z,3.35
2023-03-17T13:39:59.817Z,2.90
2023-03-17T13:44:21.651Z,3.00
2023-03-17T13:48:30.934Z,2.90
2023-03-17T13:52:41.163Z,2.88
2023-03-17T13:56:43.759Z,2.75
2023-03-17T14:00:49.376Z,2.80
2023-03-17T14:05:09.011Z,2.70
2023-03-17T14:09:31.414Z,2.90
2023-03-17T14:13:48.612Z,2.80
2023-03-17T14:17:56.318Z,2.80
2023-03-17T14:22:24.697Z,2.55
2023-03-17T14:26:29.616Z,2.00
2023-03-17T14:30:33.666Z,2.00
2023-03-17T14:34:43.001Z,2.20
2023-03-17T14:38:50.494Z,2.22
2023-03-17T14:42:52.833Z,2.30
2023-03-17T14:47:02.879Z,2.00
2023-03-17T14:51:09.213Z,1.73
2023-03-17T14:55:14.916Z,1.95
2023-03-17T14:59:22.248Z,1.70
2023-03-17T15:03:28.025Z,2.10
2023-03-17T15:07:35.905Z,1.55
2023-03-17T15:11:41.863Z,1.92
2023-03-17T15:15:44.635Z,1.67
2023-03-17T15:19:49.206Z,1.58
2023-03-17T15:23:51.092Z,1.65
2023-03-17T15:27:53.537Z,1.88
2023-03-17T15:32:20.088Z,1.75
2023-03-17T15:36:32.391Z,1.60
2023-03-17T15:40:34.905Z,1.80
2023-03-17T15:44:36.724Z,1.33
2023-03-17T15:48:38.968Z,1.80
2023-03-17T15:52:41.072Z,1.73
2023-03-17T15:56:43.317Z,1.80
2023-03-17T16:00:49.955Z,1.80
2023-03-17T16:04:52.806Z,1.50
2023-03-17T16:08:54.645Z,2.10
2023-03-17T16:12:58.361Z,1.83
2023-03-17T16:17:00.164Z,1.95
2023-03-17T16:21:03.983Z,1.90
2023-03-17T16:25:29.890Z,2.30
2023-03-17T16:29:31.651Z,2.20
2023-03-17T16:33:38.226Z,1.80
2023-03-17T16:37:40.022Z,2.13
2023-03-17T16:41:41.938Z,2.22
2023-03-17T16:45:43.799Z,2.40
2023-03-17T16:49:45.590Z,2.03
2023-03-17T16:53:47.671Z,2.30
2023-03-17T16:57:51.928Z,2.33
2023-03-17T17:01:54.995Z,1.80
2023-03-17T17:05:57.077Z,1.60
2023-03-17T17:09:58.867Z,1.77
2023-03-17T17:14:00.778Z,1.60
2023-03-17T17:18:18.458Z,1.52
2023-03-17T17:22:20.228Z,2.05
2023-03-17T17:26:22.540Z,2.17
2023-03-17T17:30:28.321Z,2.40
2023-03-17T17:34:30.354Z,1.70
2023-03-17T17:38:32.409Z,1.42
2023-03-17T17:42:35.328Z,1.90
2023-03-17T17:46:37.608Z,1.70
2023-03-17T17:50:39.460Z,1.60
2023-03-17T17:54:41.298Z,1.63
2023-03-17T17:58:43.932Z,1.40
2023-03-17T18:02:45.887Z,1.63
2023-03-17T18:06:48.029Z,1.70
2023-03-17T18:10:51.991Z,1.45
2023-03-17T18:14:54.085Z,1.70
2023-03-17T18:18:57.671Z,1.52
2023-03-17T18:22:59.676Z,2.75
2023-03-17T18:27:03.822Z,2.20
2023-03-17T18:31:10.569Z,2.03
2023-03-17T18:35:17.222Z,2.05
2023-03-17T18:39:19.102Z,1.92
2023-03-17T18:43:21.317Z,1.95
2023-03-17T18:47:23.299Z,2.00
2023-03-17T18:51:25.185Z,1.98
2023-03-17T18:55:27.024Z,2.65
2023-03-17T18:59:28.784Z,2.50
2023-03-17T19:03:32.269Z,2.72
2023-03-17T19:07:34.967Z,2.13
2023-03-17T19:11:39.245Z,2.85
2023-03-17T19:15:41.515Z,2.45
2023-03-17T19:19:43.559Z,2.20
2023-03-17T19:23:45.396Z,2.63
2023-03-17T19:27:47.387Z,1.70
2023-03-17T19:31:49.189Z,2.08
2023-03-17T19:35:57.030Z,1.95
2023-03-17T19:39:59.277Z,3.28
2023-03-17T19:44:02.323Z,2.50
2023-03-17T19:48:04.382Z,2.42
2023-03-17T19:52:07.657Z,2.88
2023-03-17T19:56:10.886Z,3.08
2023-03-17T20:00:13.342Z,2.38
2023-03-17T20:04:19.519Z,2.40
2023-03-17T20:08:22.488Z,2.63
2023-03-17T20:12:25.528Z,3.20
2023-03-17T20:16:27.594Z,2.60
2023-03-17T20:20:29.850Z,2.85
2023-03-17T20:24:32.637Z,2.80
2023-03-17T20:28:34.652Z,2.60
2023-03-17T20:32:36.483Z,3.35
2023-03-17T20:36:42.269Z,3.30
2023-03-17T20:40:44.287Z,3.03
2023-03-17T20:44:46.170Z,3.03
2023-03-17T20:48:48.372Z,3.58
2023-03-17T20:52:50.743Z,3.50
2023-03-17T20:56:55.891Z,3.10
2023-03-17T21:00:58.537Z,2.60
2023-03-17T21:05:00.317Z,2.45
2023-03-17T21:09:03.099Z,3.00
2023-03-17T21:13:04.965Z,2.58
2023-03-17T21:17:07.856Z,3.22
2023-03-17T21:21:09.699Z,3.20
2023-03-17T21:25:11.731Z,2.67
2023-03-17T21:29:13.682Z,2.58
2023-03-17T21:33:15.545Z,2.90
2023-03-17T21:37:18.285Z,2.80
2023-03-17T21:41:22.765Z,2.85
2023-03-17T21:45:24.633Z,2.30
2023-03-17T21:49:26.430Z,2.70
2023-03-17T21:53:28.210Z,2.60
2023-03-17T21:57:30.844Z,2.50
2023-03-17T22:01:33.259Z,3.20
2023-03-17T22:05:36.063Z,2.70
2023-03-17T22:09:37.963Z,3.40
2023-03-17T22:13:41.061Z,3.08
2023-03-17T22:17:42.933Z,2.88
2023-03-17T22:21:44.739Z,2.80
2023-03-17T22:25:46.638Z,3.00
2023-03-17T22:29:48.471Z,2.85
2023-03-17T22:33:53.293Z,2.63
2023-03-17T22:37:55.083Z,3.00
2023-03-17T22:41:57.169Z,2.50
2023-03-17T22:45:59.063Z,2.35
2023-03-17T22:50:00.873Z,3.00
2023-03-17T22:54:03.185Z,3.05
2023-03-17T22:58:05.973Z,3.20
2023-03-17T23:02:08.609Z,2.80
2023-03-17T23:06:11.534Z,2.45
2023-03-17T23:10:15.581Z,1.75
2023-03-17T23:14:17.383Z,1.33
2023-03-17T23:18:19.161Z,1.48
2023-03-17T23:22:21.830Z,1.48
2023-03-17T23:26:24.014Z,1.70
2023-03-17T23:30:26.014Z,1.90
2023-03-17T23:34:28.516Z,1.67
2023-03-17T23:38:30.328Z,1.98
2023-03-17T23:42:33.022Z,2.50
2023-03-17T23:46:34.972Z,3.00
2023-03-17T23:50:38.941Z,2.83
2023-03-17T23:54:41.244Z,2.90
2023-03-17T23:58:43.611Z,2.28
